Gouverneur, NY

7:59 PM EDT on October 30, 2014 (GMT -0400)
Village of Gouverneur (Barnes St.) | Change Station
CLOSE
Current Station
Personal Weather Station
Location: Gouverneur, NY
Elevation: 433 ft
Nearby Weather Stations

Elev 433 ft 44.34 °N, 75.47 °W | Updated 2 minutes ago

Overcast
Overcast
40.8 °F
Feels Like 41 °F
N
0.0
Wind Variable Wind from WNW

Today
High -- | Low -- °F
--% Chance of Precip.
Yesterday
High -- | Low -- °F
Precip. -- in
7:36 AM 5:53 PM
Waxing Crescent, 49% visible
Pressure 30.04 in
Visibility 10.0 miles
Clouds Overcast 4500 ft
Windchill 41 °F
Dew Point 38 °F
Humidity 88%
Rainfall 0.00 in
Snow Depth Not available.
UV 0 out of 12
Pollen .10 out of 12
Air Quality Not available.
Flu Activity Not available.
METAR KGTB 302258Z AUTO 21001KT 10SM OVC045 05/01 A3002 RMK AO2 SLP171 T00460005

More Conditions Fewer Conditions

Pressure 30.04 in
Visibility 10.0 miles
Clouds Overcast 4500 ft
Windchill 41 °F
Dew Point 38 °F
Humidity 88%
Rainfall 0.00 in
Snow Depth Not available.
UV 0 out of 12
Pollen .10 out of 12
Air Quality Not available.
Flu Activity Not available.
METAR KGTB 302258Z AUTO 21001KT 10SM OVC045 05/01 A3002 RMK AO2 SLP171 T00460005

More Conditions Fewer Conditions

10-Day Weather Forecast

Almanac

Astronomy

Oct. 30, 2014 Rise Set
Actual Time
Civil Twilight
Nautical Twilight
Astronomical Twilight
Moon
Length of Visible Light
Length of Day
Tomorrow will be .
, % of the Moon is Illuminated

Today's Extremes

State Highs State Lows

Community

WunderPhotos

Upload Photos

1,766,496 photos uploaded!

WunderBlogs® & News

Nearby

Air Quality

  Air Quality AQ Index Pollutant
Not available.

Snow Depth

Station Depth Elevation

Earthquake Activity

City Distance Mag. Time & Date
Minimum magnitude displayed is 2.5.

Coastal Water Temperatures

Place Temperature

Nearby Weather Stations